DLH8C EDDM-KJFK
Flight info
| Callsign | DLH8C |
|---|---|
| Flight time | 5h 8m |
| Altitude | 38000 |
| Route | GIVMI6Q GIVMI Y101 INBED DCT REKDI DCT LOHRE DCT BUB L608 DENUT L610 KOPUL Q60 OKSAW DCT BIBPE DCT FELCA DCT OFSOX DCT SLANY DCT OLGON DCT NEBIN/M084F390 NATE BUDAR/N0490F400 N446A MIILS DCT ENE PARCH4 |
| Aircraft | A359/H-SDE2E3GHIJ3J4J5LM1ORWXY/LB1D1 |
Departure
| Time | 2026-05-09 11:09 |
|---|---|
| Airport | Munich Airport (EDDM) |
Arrival
| Time | 2026-05-09 16:17 |
|---|---|
| Airport | John F. Kennedy International Airport (KJFK) |
| Time | Latitude | Longitude | Altitude | Speed | Heading |
|---|---|---|---|---|---|
| 2026-05-09 09:51 | 48.35057 | 11.80481 | 1479 ft | 0 kts | 173° |
| 2026-05-09 10:30 | 48.35059 | 11.80481 | 1492 ft | 2 kts | 173° |
| 2026-05-09 10:30 | 48.35085 | 11.80477 | 1487 ft | 4 kts | 173° |
| 2026-05-09 10:30 | 48.35111 | 11.80472 | 1476 ft | 4 kts | 173° |
| 2026-05-09 10:31 | 48.35136 | 11.80468 | 1476 ft | 2 kts | 173° |
| 2026-05-09 10:31 | 48.35160 | 11.80467 | 1476 ft | 4 kts | 195° |
| 2026-05-09 10:31 | 48.35182 | 11.80485 | 1476 ft | 4 kts | 231° |
| 2026-05-09 10:31 | 48.35194 | 11.80520 | 1476 ft | 4 kts | 262° |
| 2026-05-09 10:32 | 48.35197 | 11.80557 | 1479 ft | 4 kts | 263° |
| 2026-05-09 10:32 | 48.35198 | 11.80573 | 1478 ft | 0 kts | 263° |
| 2026-05-09 10:41 | 48.35198 | 11.80570 | 1492 ft | 3 kts | 263° |
| 2026-05-09 10:41 | 48.35190 | 11.80476 | 1478 ft | 12 kts | 263° |
| 2026-05-09 10:41 | 48.35180 | 11.80350 | 1491 ft | 8 kts | 262° |
| 2026-05-09 10:42 | 48.35171 | 11.80269 | 1480 ft | 10 kts | 259° |
| 2026-05-09 10:42 | 48.35194 | 11.80191 | 1476 ft | 10 kts | 332° |
| 2026-05-09 10:42 | 48.35270 | 11.80174 | 1485 ft | 10 kts | 354° |
| 2026-05-09 10:42 | 48.35310 | 11.80168 | 1485 ft | 4 kts | 354° |
| 2026-05-09 10:43 | 48.35322 | 11.80167 | 1488 ft | 0 kts | 354° |
| 2026-05-09 10:43 | 48.35333 | 11.80165 | 1491 ft | 0 kts | 354° |
| 2026-05-09 10:46 | 48.35336 | 11.80164 | 1491 ft | 2 kts | 354° |
| 2026-05-09 10:46 | 48.35383 | 11.80149 | 1478 ft | 10 kts | 343° |
| 2026-05-09 10:46 | 48.35461 | 11.80130 | 1488 ft | 14 kts | 353° |
| 2026-05-09 10:46 | 48.35549 | 11.80116 | 1486 ft | 9 kts | 353° |
| 2026-05-09 10:47 | 48.35614 | 11.80104 | 1486 ft | 6 kts | 353° |
| 2026-05-09 10:47 | 48.35632 | 11.80101 | 1488 ft | 0 kts | 353° |
| 2026-05-09 10:49 | 48.35637 | 11.80100 | 1478 ft | 3 kts | 352° |
| 2026-05-09 10:49 | 48.35677 | 11.80086 | 1477 ft | 9 kts | 348° |
| 2026-05-09 10:49 | 48.35750 | 11.80071 | 1484 ft | 11 kts | 353° |
| 2026-05-09 10:50 | 48.35819 | 11.80042 | 1477 ft | 9 kts | 318° |
| 2026-05-09 10:50 | 48.35827 | 11.79954 | 1489 ft | 9 kts | 263° |
| 2026-05-09 10:50 | 48.35819 | 11.79864 | 1491 ft | 7 kts | 262° |
| 2026-05-09 10:50 | 48.35817 | 11.79840 | 1477 ft | 0 kts | 263° |
| 2026-05-09 10:53 | 48.35817 | 11.79837 | 1477 ft | 2 kts | 263° |
| 2026-05-09 10:53 | 48.35812 | 11.79772 | 1486 ft | 11 kts | 263° |
| 2026-05-09 10:53 | 48.35801 | 11.79649 | 1479 ft | 13 kts | 263° |
| 2026-05-09 10:53 | 48.35792 | 11.79519 | 1489 ft | 11 kts | 264° |
| 2026-05-09 10:54 | 48.35793 | 11.79413 | 1476 ft | 9 kts | 296° |
| 2026-05-09 10:54 | 48.35860 | 11.79380 | 1483 ft | 12 kts | 351° |
| 2026-05-09 10:54 | 48.35952 | 11.79341 | 1487 ft | 15 kts | 349° |
| 2026-05-09 10:54 | 48.36053 | 11.79323 | 1483 ft | 10 kts | 352° |
| 2026-05-09 10:55 | 48.36086 | 11.79254 | 1481 ft | 11 kts | 269° |
| 2026-05-09 10:55 | 48.36077 | 11.79098 | 1477 ft | 20 kts | 264° |
| 2026-05-09 10:55 | 48.36060 | 11.78851 | 1482 ft | 26 kts | 263° |
| 2026-05-09 10:55 | 48.36037 | 11.78532 | 1485 ft | 33 kts | 262° |
| 2026-05-09 10:56 | 48.36006 | 11.78199 | 1491 ft | 29 kts | 263° |
| 2026-05-09 10:56 | 48.35985 | 11.77911 | 1483 ft | 28 kts | 263° |
| 2026-05-09 10:56 | 48.35963 | 11.77630 | 1484 ft | 26 kts | 263° |
| 2026-05-09 10:56 | 48.35943 | 11.77368 | 1482 ft | 24 kts | 263° |
| 2026-05-09 10:57 | 48.35925 | 11.77133 | 1483 ft | 22 kts | 263° |
| 2026-05-09 10:57 | 48.35908 | 11.76914 | 1491 ft | 20 kts | 263° |
| 2026-05-09 10:57 | 48.35903 | 11.76766 | 1488 ft | 13 kts | 281° |
| 2026-05-09 10:57 | 48.35944 | 11.76681 | 1476 ft | 8 kts | 325° |
| 2026-05-09 10:58 | 48.35994 | 11.76660 | 1480 ft | 4 kts | 353° |
| 2026-05-09 10:58 | 48.36016 | 11.76656 | 1480 ft | 2 kts | 353° |
| 2026-05-09 10:58 | 48.36022 | 11.76655 | 1486 ft | 0 kts | 353° |
| 2026-05-09 11:03 | 48.36024 | 11.76655 | 1491 ft | 2 kts | 353° |
| 2026-05-09 11:03 | 48.36066 | 11.76647 | 1479 ft | 7 kts | 352° |
| 2026-05-09 11:04 | 48.36114 | 11.76643 | 1478 ft | 6 kts | 7° |
| 2026-05-09 11:04 | 48.36129 | 11.76652 | 1482 ft | 0 kts | 24° |
| 2026-05-09 11:04 | 48.36130 | 11.76652 | 1482 ft | 0 kts | 24° |
| 2026-05-09 11:05 | 48.36139 | 11.76661 | 1484 ft | 1 kts | 32° |
| 2026-05-09 11:07 | 48.36140 | 11.76662 | 1484 ft | 1 kts | 32° |
| 2026-05-09 11:07 | 48.36162 | 11.76685 | 1478 ft | 7 kts | 37° |
| 2026-05-09 11:07 | 48.36215 | 11.76749 | 1478 ft | 12 kts | 38° |
| 2026-05-09 11:07 | 48.36277 | 11.76835 | 1477 ft | 13 kts | 57° |
| 2026-05-09 11:08 | 48.36288 | 11.76904 | 1482 ft | 2 kts | 84° |
| 2026-05-09 11:08 | 48.36291 | 11.76942 | 1479 ft | 11 kts | 84° |
| 2026-05-09 11:08 | 48.36323 | 11.77360 | 1479 ft | 72 kts | 83° |
| 2026-05-09 11:08 | 48.36404 | 11.78409 | 1492 ft | 128 kts | 83° |
| 2026-05-09 11:09 | 48.36525 | 11.79976 | 1625 ft | 162 kts | 82° |
| 2026-05-09 11:09 | 48.36634 | 11.81567 | 2429 ft | 148 kts | 84° |
| 2026-05-09 11:09 | 48.36735 | 11.83114 | 2892 ft | 158 kts | 82° |
| 2026-05-09 11:09 | 48.37302 | 11.84568 | 3246 ft | 172 kts | 41° |
| 2026-05-09 11:10 | 48.38451 | 11.85313 | 3563 ft | 188 kts | 15° |
| 2026-05-09 11:10 | 48.39776 | 11.85791 | 3866 ft | 205 kts | 17° |
| 2026-05-09 11:10 | 48.41255 | 11.86117 | 4090 ft | 226 kts | 358° |
| 2026-05-09 11:10 | 48.42776 | 11.85241 | 4353 ft | 251 kts | 323° |
| 2026-05-09 11:11 | 48.43973 | 11.83224 | 4694 ft | 271 kts | 309° |
| 2026-05-09 11:11 | 48.45152 | 11.80957 | 5405 ft | 272 kts | 309° |
| 2026-05-09 11:11 | 48.46349 | 11.78727 | 6204 ft | 274 kts | 309° |
| 2026-05-09 11:11 | 48.47584 | 11.76509 | 6981 ft | 276 kts | 309° |
| 2026-05-09 11:12 | 48.48798 | 11.74339 | 7850 ft | 271 kts | 309° |
| 2026-05-09 11:12 | 48.50022 | 11.72159 | 8691 ft | 273 kts | 309° |
| 2026-05-09 11:12 | 48.51262 | 11.69958 | 9471 ft | 277 kts | 308° |
| 2026-05-09 11:12 | 48.52519 | 11.67732 | 10233 ft | 279 kts | 308° |
| 2026-05-09 11:13 | 48.53771 | 11.65516 | 10959 ft | 282 kts | 308° |
| 2026-05-09 11:13 | 48.55057 | 11.63241 | 11676 ft | 285 kts | 308° |
| 2026-05-09 11:13 | 48.56357 | 11.60940 | 12411 ft | 289 kts | 309° |
| 2026-05-09 11:13 | 48.57673 | 11.58615 | 13074 ft | 296 kts | 309° |
| 2026-05-09 11:14 | 48.59032 | 11.56208 | 13400 ft | 312 kts | 309° |
| 2026-05-09 11:14 | 48.60485 | 11.53626 | 13708 ft | 329 kts | 309° |
| 2026-05-09 11:14 | 48.61991 | 11.50948 | 14011 ft | 345 kts | 309° |
| 2026-05-09 11:14 | 48.63577 | 11.48129 | 14421 ft | 355 kts | 309° |
| 2026-05-09 11:15 | 48.65197 | 11.45249 | 14970 ft | 360 kts | 309° |
| 2026-05-09 11:15 | 48.66809 | 11.42381 | 15594 ft | 363 kts | 309° |
| 2026-05-09 11:15 | 48.68453 | 11.39451 | 16241 ft | 366 kts | 309° |
| 2026-05-09 11:15 | 48.70200 | 11.36619 | 16837 ft | 370 kts | 317° |
| 2026-05-09 11:16 | 48.72214 | 11.34137 | 17450 ft | 374 kts | 322° |
| 2026-05-09 11:16 | 48.74333 | 11.31881 | 18098 ft | 378 kts | 325° |
| 2026-05-09 11:16 | 48.76555 | 11.29678 | 18684 ft | 383 kts | 326° |
| 2026-05-09 11:16 | 48.78820 | 11.27482 | 19247 ft | 386 kts | 326° |
| 2026-05-09 11:17 | 48.81072 | 11.25291 | 19872 ft | 388 kts | 326° |
| 2026-05-09 11:17 | 48.83388 | 11.23108 | 20479 ft | 391 kts | 330° |
| 2026-05-09 11:17 | 48.85850 | 11.21397 | 21068 ft | 394 kts | 337° |
| 2026-05-09 11:17 | 48.88441 | 11.19890 | 21650 ft | 397 kts | 339° |
| 2026-05-09 11:18 | 48.91032 | 11.18497 | 22249 ft | 400 kts | 339° |
| 2026-05-09 11:18 | 48.93568 | 11.16725 | 22814 ft | 402 kts | 331° |
| 2026-05-09 11:18 | 48.96008 | 11.14597 | 23398 ft | 405 kts | 328° |
| 2026-05-09 11:18 | 48.98404 | 11.12302 | 23902 ft | 407 kts | 326° |
| 2026-05-09 11:19 | 49.00754 | 11.09934 | 24343 ft | 411 kts | 326° |
| 2026-05-09 11:19 | 49.03137 | 11.07481 | 24798 ft | 413 kts | 326° |
| 2026-05-09 11:19 | 49.05529 | 11.05009 | 25280 ft | 415 kts | 326° |
| 2026-05-09 11:19 | 49.07909 | 11.02559 | 25776 ft | 417 kts | 326° |
| 2026-05-09 11:20 | 49.10326 | 11.00081 | 26238 ft | 420 kts | 326° |
| 2026-05-09 11:20 | 49.12766 | 10.97589 | 26696 ft | 422 kts | 326° |
| 2026-05-09 11:20 | 49.15194 | 10.95114 | 27155 ft | 424 kts | 326° |
| 2026-05-09 11:20 | 49.17673 | 10.92588 | 27614 ft | 427 kts | 326° |
| 2026-05-09 11:21 | 49.20135 | 10.90079 | 28048 ft | 429 kts | 326° |
| 2026-05-09 11:21 | 49.21793 | 10.88388 | 28339 ft | 431 kts | 326° |
| 2026-05-09 11:22 | 49.22668 | 10.87495 | 28493 ft | 432 kts | 326° |
| 2026-05-09 11:22 | 49.25192 | 10.84913 | 28925 ft | 435 kts | 327° |
| 2026-05-09 11:22 | 49.27690 | 10.82357 | 29317 ft | 437 kts | 327° |
| 2026-05-09 11:22 | 49.30237 | 10.79746 | 29727 ft | 440 kts | 327° |
| 2026-05-09 11:23 | 49.32801 | 10.77115 | 30125 ft | 442 kts | 327° |
| 2026-05-09 11:23 | 49.35347 | 10.74498 | 30461 ft | 444 kts | 327° |
| 2026-05-09 11:23 | 49.37929 | 10.71841 | 30806 ft | 446 kts | 327° |
| 2026-05-09 11:23 | 49.40483 | 10.69209 | 31151 ft | 447 kts | 327° |
| 2026-05-09 11:24 | 49.43089 | 10.66519 | 31441 ft | 450 kts | 327° |
| 2026-05-09 11:24 | 49.45668 | 10.63855 | 31745 ft | 452 kts | 327° |
| 2026-05-09 11:24 | 49.48292 | 10.61141 | 32026 ft | 454 kts | 327° |
| 2026-05-09 11:24 | 49.50930 | 10.58407 | 32296 ft | 456 kts | 327° |
| 2026-05-09 11:25 | 49.53561 | 10.55678 | 32553 ft | 458 kts | 327° |
| 2026-05-09 11:25 | 49.56224 | 10.52913 | 32829 ft | 460 kts | 327° |
| 2026-05-09 11:25 | 49.58886 | 10.50145 | 33077 ft | 462 kts | 327° |
| 2026-05-09 11:25 | 49.61549 | 10.47367 | 33322 ft | 464 kts | 327° |
| 2026-05-09 11:26 | 49.64090 | 10.44327 | 33568 ft | 466 kts | 319° |
| 2026-05-09 11:26 | 49.66373 | 10.40751 | 33876 ft | 468 kts | 312° |
| 2026-05-09 11:26 | 49.68429 | 10.36807 | 34212 ft | 467 kts | 309° |
| 2026-05-09 11:26 | 49.70313 | 10.32769 | 34496 ft | 466 kts | 306° |
| 2026-05-09 11:27 | 49.72127 | 10.28644 | 34753 ft | 466 kts | 305° |
| 2026-05-09 11:27 | 49.73931 | 10.24440 | 35004 ft | 466 kts | 305° |
| 2026-05-09 11:27 | 49.75718 | 10.20258 | 35220 ft | 468 kts | 305° |
| 2026-05-09 11:27 | 49.77528 | 10.16049 | 35409 ft | 468 kts | 305° |
| 2026-05-09 11:28 | 49.79330 | 10.11887 | 35659 ft | 468 kts | 305° |
| 2026-05-09 11:28 | 49.81138 | 10.07732 | 35914 ft | 467 kts | 305° |
| 2026-05-09 11:28 | 49.82979 | 10.03512 | 36112 ft | 467 kts | 305° |
| 2026-05-09 11:28 | 49.84787 | 9.99373 | 36315 ft | 467 kts | 305° |
| 2026-05-09 11:29 | 49.86595 | 9.95227 | 36544 ft | 466 kts | 305° |
| 2026-05-09 11:29 | 49.88425 | 9.91026 | 36771 ft | 466 kts | 304° |
| 2026-05-09 11:29 | 49.90223 | 9.86890 | 36983 ft | 466 kts | 304° |
| 2026-05-09 11:29 | 49.92022 | 9.82744 | 37191 ft | 465 kts | 304° |
| 2026-05-09 11:30 | 49.93835 | 9.78559 | 37394 ft | 465 kts | 304° |
| 2026-05-09 11:30 | 49.95626 | 9.74415 | 37564 ft | 465 kts | 304° |
| 2026-05-09 11:30 | 49.97445 | 9.70202 | 37763 ft | 465 kts | 304° |
| 2026-05-09 11:30 | 49.99228 | 9.66064 | 37942 ft | 464 kts | 304° |
| 2026-05-09 11:31 | 50.01037 | 9.61859 | 38105 ft | 465 kts | 303° |
| 2026-05-09 11:31 | 50.04617 | 9.53508 | 38121 ft | 469 kts | 303° |
| 2026-05-09 11:32 | 50.07447 | 9.44392 | 38114 ft | 468 kts | 289° |
| 2026-05-09 11:32 | 50.09445 | 9.34709 | 38114 ft | 469 kts | 287° |
| 2026-05-09 11:33 | 50.11289 | 9.24974 | 38115 ft | 469 kts | 287° |
| 2026-05-09 11:33 | 50.14030 | 9.10365 | 38113 ft | 469 kts | 287° |
| 2026-05-09 11:34 | 50.15869 | 9.00614 | 38115 ft | 469 kts | 287° |
| 2026-05-09 11:34 | 50.17711 | 8.90817 | 38123 ft | 469 kts | 287° |
| 2026-05-09 11:35 | 50.19529 | 8.81100 | 38123 ft | 469 kts | 287° |
| 2026-05-09 11:35 | 50.21343 | 8.71346 | 38123 ft | 469 kts | 287° |
| 2026-05-09 11:36 | 50.23155 | 8.61554 | 38125 ft | 469 kts | 287° |
| 2026-05-09 11:36 | 50.24949 | 8.51806 | 38126 ft | 469 kts | 286° |
| 2026-05-09 11:37 | 50.26748 | 8.41982 | 38128 ft | 469 kts | 286° |
| 2026-05-09 11:37 | 50.28525 | 8.32222 | 38129 ft | 469 kts | 286° |
| 2026-05-09 11:38 | 50.30306 | 8.22387 | 38124 ft | 469 kts | 286° |
| 2026-05-09 11:38 | 50.31778 | 8.14221 | 38128 ft | 468 kts | 286° |
| 2026-05-09 11:39 | 50.33535 | 8.04423 | 38126 ft | 468 kts | 286° |
| 2026-05-09 11:40 | 50.36164 | 7.89658 | 38122 ft | 469 kts | 285° |
| 2026-05-09 11:40 | 50.37896 | 7.79870 | 38126 ft | 469 kts | 285° |
| 2026-05-09 11:41 | 50.39633 | 7.69995 | 38125 ft | 469 kts | 285° |
| 2026-05-09 11:41 | 50.41359 | 7.60131 | 38121 ft | 469 kts | 285° |
| 2026-05-09 11:42 | 50.43066 | 7.50317 | 38120 ft | 469 kts | 285° |
| 2026-05-09 11:42 | 50.44777 | 7.40429 | 38113 ft | 469 kts | 285° |
| 2026-05-09 11:43 | 50.46482 | 7.30520 | 38115 ft | 470 kts | 285° |
| 2026-05-09 11:43 | 50.48177 | 7.20611 | 38117 ft | 469 kts | 284° |
| 2026-05-09 11:44 | 50.49855 | 7.10744 | 38115 ft | 469 kts | 284° |
| 2026-05-09 11:44 | 50.51525 | 7.00870 | 38116 ft | 469 kts | 284° |
| 2026-05-09 11:45 | 50.53196 | 6.90936 | 38116 ft | 470 kts | 284° |
| 2026-05-09 11:45 | 50.54863 | 6.80963 | 38109 ft | 471 kts | 284° |
| 2026-05-09 11:46 | 50.56511 | 6.71048 | 38107 ft | 471 kts | 284° |
| 2026-05-09 11:46 | 50.58161 | 6.61060 | 38100 ft | 471 kts | 284° |
| 2026-05-09 11:47 | 50.59793 | 6.51132 | 38096 ft | 470 kts | 283° |
| 2026-05-09 11:47 | 50.61429 | 6.41109 | 38107 ft | 471 kts | 283° |
| 2026-05-09 11:48 | 50.63046 | 6.31151 | 38102 ft | 471 kts | 283° |
| 2026-05-09 11:48 | 50.64666 | 6.21114 | 38105 ft | 471 kts | 283° |
| 2026-05-09 11:49 | 50.66269 | 6.11117 | 38112 ft | 471 kts | 283° |
| 2026-05-09 11:49 | 50.67862 | 6.01130 | 38106 ft | 472 kts | 282° |
| 2026-05-09 11:50 | 50.69453 | 5.91093 | 38105 ft | 472 kts | 282° |
| 2026-05-09 11:50 | 50.71039 | 5.81026 | 38105 ft | 472 kts | 282° |
| 2026-05-09 11:51 | 50.72615 | 5.70953 | 38107 ft | 472 kts | 282° |
| 2026-05-09 11:51 | 50.74174 | 5.60936 | 38109 ft | 472 kts | 282° |
| 2026-05-09 11:52 | 50.75735 | 5.50841 | 38105 ft | 473 kts | 282° |
| 2026-05-09 11:52 | 50.77280 | 5.40784 | 38106 ft | 473 kts | 282° |
| 2026-05-09 11:53 | 50.78823 | 5.30679 | 38105 ft | 473 kts | 282° |
| 2026-05-09 11:53 | 50.80353 | 5.20596 | 38116 ft | 473 kts | 281° |
| 2026-05-09 11:54 | 50.81886 | 5.10433 | 38116 ft | 473 kts | 281° |
| 2026-05-09 11:54 | 50.83398 | 5.00341 | 38116 ft | 474 kts | 281° |
| 2026-05-09 11:55 | 50.84911 | 4.90172 | 38121 ft | 474 kts | 281° |
| 2026-05-09 11:56 | 50.89402 | 4.59667 | 38125 ft | 476 kts | 281° |
| 2026-05-09 11:57 | 50.91830 | 4.49928 | 38136 ft | 482 kts | 296° |
| 2026-05-09 11:57 | 50.95200 | 4.40724 | 38132 ft | 483 kts | 298° |
| 2026-05-09 11:58 | 50.98716 | 4.31617 | 38128 ft | 484 kts | 299° |
| 2026-05-09 11:58 | 51.02219 | 4.22543 | 38124 ft | 484 kts | 298° |
| 2026-05-09 11:59 | 51.05728 | 4.13354 | 38120 ft | 483 kts | 298° |
| 2026-05-09 11:59 | 51.09193 | 4.04212 | 38120 ft | 483 kts | 298° |
| 2026-05-09 12:00 | 51.12647 | 3.95058 | 38112 ft | 483 kts | 298° |
| 2026-05-09 12:00 | 51.16109 | 3.85856 | 38114 ft | 484 kts | 298° |
| 2026-05-09 12:01 | 51.19554 | 3.76668 | 38119 ft | 485 kts | 298° |
| 2026-05-09 12:01 | 51.22835 | 3.67278 | 38102 ft | 484 kts | 290° |
| 2026-05-09 12:02 | 51.24785 | 3.57129 | 38101 ft | 479 kts | 280° |
| 2026-05-09 12:02 | 51.26219 | 3.46730 | 38103 ft | 479 kts | 279° |
| 2026-05-09 12:03 | 51.27558 | 3.36302 | 38116 ft | 479 kts | 278° |
| 2026-05-09 12:03 | 51.28873 | 3.25902 | 38107 ft | 480 kts | 278° |
| 2026-05-09 12:04 | 51.30200 | 3.15406 | 38107 ft | 480 kts | 278° |
| 2026-05-09 12:04 | 51.31519 | 3.04973 | 38116 ft | 480 kts | 278° |
| 2026-05-09 12:05 | 51.32839 | 2.94489 | 38104 ft | 480 kts | 278° |
| 2026-05-09 12:05 | 51.34140 | 2.84071 | 38125 ft | 480 kts | 278° |
| 2026-05-09 12:06 | 51.35444 | 2.73544 | 38116 ft | 481 kts | 278° |
| 2026-05-09 12:06 | 51.36732 | 2.63089 | 38115 ft | 481 kts | 278° |
| 2026-05-09 12:07 | 51.38025 | 2.52548 | 38116 ft | 481 kts | 277° |
| 2026-05-09 12:07 | 51.39300 | 2.42070 | 38116 ft | 481 kts | 277° |
| 2026-05-09 12:08 | 51.40571 | 2.31538 | 38118 ft | 482 kts | 277° |
| 2026-05-09 12:08 | 51.41832 | 2.21036 | 38118 ft | 482 kts | 277° |
| 2026-05-09 12:09 | 51.43089 | 2.10452 | 38111 ft | 482 kts | 277° |
| 2026-05-09 12:09 | 51.44325 | 1.99929 | 38113 ft | 482 kts | 277° |
| 2026-05-09 12:10 | 51.46903 | 1.78841 | 38117 ft | 482 kts | 277° |
| 2026-05-09 12:11 | 51.48119 | 1.68262 | 38119 ft | 482 kts | 276° |
| 2026-05-09 12:11 | 51.49315 | 1.57681 | 38119 ft | 482 kts | 276° |
| 2026-05-09 12:12 | 51.50512 | 1.47069 | 38120 ft | 482 kts | 276° |
| 2026-05-09 12:12 | 51.51693 | 1.36552 | 38119 ft | 483 kts | 276° |
| 2026-05-09 12:13 | 51.52881 | 1.25891 | 38126 ft | 483 kts | 276° |
| 2026-05-09 12:13 | 51.54054 | 1.15284 | 38129 ft | 483 kts | 276° |
| 2026-05-09 12:14 | 51.55016 | 1.04673 | 38128 ft | 480 kts | 272° |
| 2026-05-09 12:14 | 51.55609 | 0.93958 | 38140 ft | 480 kts | 271° |
| 2026-05-09 12:15 | 51.56186 | 0.83311 | 38128 ft | 481 kts | 271° |
| 2026-05-09 12:15 | 51.56822 | 0.72565 | 38129 ft | 481 kts | 272° |
| 2026-05-09 12:16 | 51.57474 | 0.61876 | 38130 ft | 481 kts | 272° |
| 2026-05-09 12:16 | 51.58120 | 0.51203 | 38128 ft | 481 kts | 271° |
| 2026-05-09 12:17 | 51.58757 | 0.40479 | 38121 ft | 481 kts | 271° |
| 2026-05-09 12:17 | 51.59378 | 0.29819 | 38106 ft | 481 kts | 271° |
| 2026-05-09 12:18 | 51.59993 | 0.19087 | 38104 ft | 481 kts | 271° |
| 2026-05-09 12:18 | 51.60596 | 0.08382 | 38103 ft | 481 kts | 271° |
| 2026-05-09 12:19 | 51.61193 | -0.02370 | 38169 ft | 481 kts | 271° |
| 2026-05-09 12:19 | 51.61781 | -0.13137 | 38176 ft | 482 kts | 271° |
| 2026-05-09 12:20 | 51.62418 | -0.23823 | 38185 ft | 482 kts | 272° |
| 2026-05-09 12:20 | 51.63094 | -0.34598 | 38186 ft | 482 kts | 272° |
| 2026-05-09 12:21 | 51.63748 | -0.45293 | 38100 ft | 482 kts | 272° |
| 2026-05-09 12:21 | 51.64389 | -0.56075 | 38102 ft | 482 kts | 271° |
| 2026-05-09 12:22 | 51.65010 | -0.66762 | 38105 ft | 482 kts | 271° |
| 2026-05-09 12:22 | 51.65626 | -0.77538 | 38106 ft | 482 kts | 271° |
| 2026-05-09 12:23 | 51.66228 | -0.88236 | 38101 ft | 482 kts | 271° |
| 2026-05-09 12:23 | 51.66823 | -0.98997 | 38115 ft | 482 kts | 271° |
| 2026-05-09 12:24 | 51.67409 | -1.09766 | 38102 ft | 482 kts | 271° |
| 2026-05-09 12:24 | 51.67985 | -1.20515 | 38103 ft | 482 kts | 271° |
| 2026-05-09 12:25 | 51.68547 | -1.31212 | 38103 ft | 482 kts | 271° |
| 2026-05-09 12:25 | 51.69104 | -1.41983 | 38102 ft | 482 kts | 271° |
| 2026-05-09 12:26 | 51.69648 | -1.52710 | 38103 ft | 482 kts | 271° |
| 2026-05-09 12:26 | 51.70185 | -1.63493 | 38106 ft | 482 kts | 271° |
| 2026-05-09 12:27 | 51.70753 | -1.74221 | 38108 ft | 483 kts | 272° |
| 2026-05-09 12:27 | 51.71546 | -1.84969 | 38109 ft | 483 kts | 274° |
| 2026-05-09 12:28 | 51.72380 | -1.95763 | 38110 ft | 483 kts | 273° |
| 2026-05-09 12:28 | 51.73158 | -2.06494 | 38104 ft | 483 kts | 273° |
| 2026-05-09 12:29 | 51.73906 | -2.17235 | 38105 ft | 483 kts | 273° |
| 2026-05-09 12:29 | 51.74645 | -2.28062 | 38106 ft | 483 kts | 273° |
| 2026-05-09 12:30 | 51.75372 | -2.38818 | 38105 ft | 483 kts | 273° |
| 2026-05-09 12:30 | 51.76445 | -2.54957 | 38109 ft | 484 kts | 273° |
| 2026-05-09 12:31 | 51.77500 | -2.71167 | 38113 ft | 484 kts | 273° |
| 2026-05-09 12:32 | 51.78191 | -2.81956 | 38155 ft | 483 kts | 272° |
| 2026-05-09 12:32 | 51.78760 | -2.90966 | 38158 ft | 483 kts | 272° |
| 2026-05-09 12:33 | 51.79433 | -3.01799 | 38157 ft | 483 kts | 272° |
| 2026-05-09 12:33 | 51.80093 | -3.12555 | 38146 ft | 484 kts | 272° |
| 2026-05-09 12:34 | 51.80747 | -3.23395 | 38139 ft | 484 kts | 272° |
| 2026-05-09 12:34 | 51.81389 | -3.34188 | 38125 ft | 484 kts | 272° |
| 2026-05-09 12:35 | 51.82018 | -3.44959 | 38115 ft | 484 kts | 272° |
| 2026-05-09 12:35 | 51.82840 | -3.55804 | 38105 ft | 486 kts | 278° |
| 2026-05-09 12:36 | 51.84157 | -3.66557 | 38103 ft | 487 kts | 279° |
| 2026-05-09 12:36 | 51.85539 | -3.77218 | 38104 ft | 487 kts | 279° |
| 2026-05-09 12:37 | 51.86933 | -3.87975 | 38106 ft | 487 kts | 279° |
| 2026-05-09 12:37 | 51.88297 | -3.98664 | 38108 ft | 488 kts | 279° |
| 2026-05-09 12:38 | 51.89659 | -4.09463 | 38109 ft | 488 kts | 279° |
| 2026-05-09 12:38 | 51.91009 | -4.20255 | 38114 ft | 488 kts | 279° |
| 2026-05-09 12:39 | 51.92339 | -4.30974 | 38126 ft | 488 kts | 278° |
| 2026-05-09 12:39 | 51.93667 | -4.41755 | 38129 ft | 488 kts | 279° |
| 2026-05-09 12:40 | 51.94988 | -4.52577 | 38135 ft | 490 kts | 278° |
| 2026-05-09 12:40 | 51.96298 | -4.63383 | 38132 ft | 490 kts | 278° |
| 2026-05-09 12:41 | 51.97605 | -4.74249 | 38144 ft | 489 kts | 278° |
| 2026-05-09 12:41 | 51.98891 | -4.85040 | 38141 ft | 489 kts | 278° |
| 2026-05-09 12:42 | 52.00176 | -4.95915 | 38157 ft | 489 kts | 277° |
| 2026-05-09 12:42 | 52.01445 | -5.06732 | 38152 ft | 489 kts | 277° |
| 2026-05-09 12:43 | 52.02738 | -5.17614 | 38150 ft | 490 kts | 281° |
| 2026-05-09 12:43 | 52.04674 | -5.28216 | 38155 ft | 492 kts | 285° |
| 2026-05-09 12:44 | 52.06793 | -5.38782 | 38164 ft | 493 kts | 285° |
| 2026-05-09 12:44 | 52.08942 | -5.49389 | 38156 ft | 493 kts | 285° |
| 2026-05-09 12:45 | 52.11062 | -5.59944 | 38175 ft | 493 kts | 285° |
| 2026-05-09 12:45 | 52.13183 | -5.70605 | 38168 ft | 493 kts | 284° |
| 2026-05-09 12:46 | 52.15278 | -5.81204 | 38177 ft | 492 kts | 284° |
| 2026-05-09 12:46 | 52.17390 | -5.91795 | 38182 ft | 491 kts | 284° |
| 2026-05-09 12:47 | 52.21603 | -6.12453 | 38180 ft | 490 kts | 285° |
| 2026-05-09 12:47 | 52.25836 | -6.33516 | 38177 ft | 490 kts | 284° |
| 2026-05-09 12:48 | 52.30050 | -6.54751 | 38199 ft | 488 kts | 285° |
| 2026-05-09 12:48 | 52.34179 | -6.75775 | 38194 ft | 487 kts | 285° |
| 2026-05-09 12:49 | 52.38268 | -6.96820 | 38192 ft | 483 kts | 285° |
| 2026-05-09 12:49 | 52.42294 | -7.17778 | 38179 ft | 480 kts | 285° |
| 2026-05-09 12:50 | 52.46264 | -7.38677 | 38213 ft | 481 kts | 284° |
| 2026-05-09 12:50 | 52.50182 | -7.59524 | 38215 ft | 478 kts | 285° |
| 2026-05-09 12:51 | 52.54052 | -7.80350 | 38226 ft | 476 kts | 285° |
| 2026-05-09 12:51 | 52.57883 | -8.01203 | 38227 ft | 475 kts | 285° |
| 2026-05-09 12:52 | 52.61660 | -8.21983 | 38224 ft | 473 kts | 284° |
| 2026-05-09 12:52 | 52.65364 | -8.42616 | 38230 ft | 473 kts | 285° |
| 2026-05-09 12:53 | 52.69068 | -8.63472 | 38227 ft | 473 kts | 285° |
| 2026-05-09 12:53 | 52.72740 | -8.84400 | 38234 ft | 477 kts | 285° |
| 2026-05-09 12:54 | 52.76374 | -9.05339 | 38248 ft | 475 kts | 285° |
| 2026-05-09 12:54 | 52.79992 | -9.26453 | 38258 ft | 480 kts | 285° |
| 2026-05-09 12:55 | 52.83568 | -9.47566 | 38264 ft | 477 kts | 285° |
| 2026-05-09 12:55 | 52.87108 | -9.68736 | 38274 ft | 479 kts | 285° |
| 2026-05-09 12:56 | 52.90640 | -9.90103 | 38300 ft | 479 kts | 285° |
| 2026-05-09 12:56 | 52.94115 | -10.11400 | 38314 ft | 480 kts | 285° |
| 2026-05-09 12:57 | 52.97565 | -10.32815 | 38320 ft | 480 kts | 285° |
| 2026-05-09 12:57 | 53.00967 | -10.54207 | 38315 ft | 479 kts | 285° |
| 2026-05-09 12:58 | 53.04343 | -10.75693 | 38330 ft | 480 kts | 285° |
| 2026-05-09 12:58 | 53.07656 | -10.97072 | 38343 ft | 478 kts | 285° |
| 2026-05-09 12:59 | 53.10968 | -11.18728 | 38330 ft | 481 kts | 285° |
| 2026-05-09 12:59 | 53.14212 | -11.40236 | 38342 ft | 479 kts | 285° |
| 2026-05-09 13:00 | 53.17413 | -11.61733 | 38356 ft | 479 kts | 286° |
| 2026-05-09 13:00 | 53.20598 | -11.83423 | 38359 ft | 480 kts | 285° |
| 2026-05-09 13:01 | 53.23723 | -12.05001 | 38374 ft | 480 kts | 285° |
| 2026-05-09 13:01 | 53.26838 | -12.26808 | 38377 ft | 482 kts | 285° |
| 2026-05-09 13:02 | 53.29913 | -12.48657 | 38390 ft | 483 kts | 285° |
| 2026-05-09 13:02 | 53.32944 | -12.70507 | 38391 ft | 484 kts | 285° |
| 2026-05-09 13:03 | 53.35958 | -12.92529 | 38397 ft | 485 kts | 286° |
| 2026-05-09 13:03 | 53.38916 | -13.14497 | 38406 ft | 485 kts | 286° |
| 2026-05-09 13:04 | 53.41851 | -13.36617 | 38417 ft | 485 kts | 285° |
| 2026-05-09 13:04 | 53.44728 | -13.58634 | 38421 ft | 486 kts | 285° |
| 2026-05-09 13:05 | 53.47581 | -13.80831 | 38428 ft | 483 kts | 285° |
| 2026-05-09 13:05 | 53.49937 | -14.02968 | 38437 ft | 487 kts | 275° |
| 2026-05-09 13:06 | 53.50122 | -14.25771 | 38441 ft | 489 kts | 273° |
| 2026-05-09 13:06 | 53.50112 | -14.48658 | 38441 ft | 489 kts | 273° |
| 2026-05-09 13:07 | 53.50092 | -14.71473 | 38446 ft | 491 kts | 273° |
| 2026-05-09 13:07 | 53.50030 | -14.94526 | 38456 ft | 492 kts | 273° |
| 2026-05-09 13:08 | 53.50271 | -15.17374 | 38454 ft | 491 kts | 276° |
| 2026-05-09 13:08 | 53.50785 | -15.40435 | 38459 ft | 494 kts | 276° |
| 2026-05-09 13:09 | 53.51166 | -15.63418 | 38466 ft | 495 kts | 275° |
| 2026-05-09 13:09 | 53.51503 | -15.86643 | 38470 ft | 497 kts | 276° |
| 2026-05-09 13:10 | 53.51797 | -16.09938 | 38476 ft | 498 kts | 275° |
| 2026-05-09 13:10 | 53.51928 | -16.21582 | 38630 ft | 497 kts | 275° |
| 2026-05-09 13:10 | 53.52046 | -16.33204 | 38944 ft | 496 kts | 275° |
| 2026-05-09 13:10 | 53.52152 | -16.44653 | 39325 ft | 495 kts | 275° |
| 2026-05-09 13:11 | 53.52250 | -16.56277 | 39490 ft | 497 kts | 275° |
| 2026-05-09 13:11 | 53.52409 | -16.79545 | 39478 ft | 497 kts | 275° |
| 2026-05-09 13:12 | 53.52524 | -17.02806 | 39488 ft | 500 kts | 275° |
| 2026-05-09 13:12 | 53.52592 | -17.26217 | 39504 ft | 499 kts | 275° |
| 2026-05-09 13:13 | 53.52615 | -17.49479 | 39506 ft | 498 kts | 275° |
| 2026-05-09 13:13 | 53.52594 | -17.72685 | 39506 ft | 498 kts | 275° |
| 2026-05-09 13:14 | 53.52527 | -17.95936 | 39517 ft | 498 kts | 275° |
| 2026-05-09 13:16 | 53.51808 | -18.89030 | 39535 ft | 498 kts | 275° |
| 2026-05-09 13:16 | 53.51515 | -19.12363 | 39535 ft | 499 kts | 275° |
| 2026-05-09 13:17 | 53.51178 | -19.35626 | 39547 ft | 499 kts | 275° |
| 2026-05-09 13:17 | 53.50795 | -19.58909 | 39549 ft | 501 kts | 275° |
| 2026-05-09 13:18 | 53.50362 | -19.82430 | 39546 ft | 500 kts | 275° |
| 2026-05-09 13:18 | 53.50256 | -20.05660 | 39549 ft | 497 kts | 280° |
| 2026-05-09 13:19 | 53.51168 | -20.28941 | 39562 ft | 499 kts | 281° |
| 2026-05-09 13:19 | 53.52076 | -20.52159 | 39571 ft | 500 kts | 281° |
| 2026-05-09 13:20 | 53.52933 | -20.75616 | 39576 ft | 503 kts | 281° |
| 2026-05-09 13:20 | 53.53740 | -20.99068 | 39572 ft | 503 kts | 281° |
| 2026-05-09 13:21 | 53.54501 | -21.22519 | 39572 ft | 504 kts | 281° |
| 2026-05-09 13:21 | 53.55226 | -21.46201 | 39586 ft | 506 kts | 281° |
| 2026-05-09 13:22 | 53.55897 | -21.69751 | 39592 ft | 506 kts | 281° |
| 2026-05-09 13:22 | 53.56524 | -21.93330 | 39591 ft | 506 kts | 280° |
| 2026-05-09 13:23 | 53.57813 | -22.48609 | 39602 ft | 508 kts | 280° |
| 2026-05-09 13:24 | 53.58286 | -22.72337 | 39602 ft | 508 kts | 280° |
| 2026-05-09 13:24 | 53.58715 | -22.96203 | 39612 ft | 508 kts | 280° |
| 2026-05-09 13:25 | 53.59096 | -23.19968 | 39612 ft | 509 kts | 280° |
| 2026-05-09 13:26 | 53.59579 | -23.55693 | 39623 ft | 511 kts | 279° |
| 2026-05-09 13:26 | 53.59843 | -23.79651 | 39627 ft | 511 kts | 279° |
| 2026-05-09 13:27 | 53.60059 | -24.03496 | 39605 ft | 512 kts | 279° |
| 2026-05-09 13:27 | 53.60228 | -24.27509 | 39625 ft | 513 kts | 279° |
| 2026-05-09 13:28 | 53.60349 | -24.51541 | 39644 ft | 513 kts | 279° |
| 2026-05-09 13:28 | 53.60422 | -24.75545 | 39635 ft | 514 kts | 278° |
| 2026-05-09 13:29 | 53.60447 | -24.99585 | 39637 ft | 514 kts | 278° |
| 2026-05-09 13:29 | 53.60425 | -25.23554 | 39634 ft | 514 kts | 278° |
| 2026-05-09 13:30 | 53.60350 | -25.47611 | 39641 ft | 512 kts | 278° |
| 2026-05-09 13:30 | 53.60232 | -25.71650 | 39645 ft | 512 kts | 278° |
| 2026-05-09 13:31 | 53.60066 | -25.95489 | 39648 ft | 512 kts | 277° |
| 2026-05-09 13:31 | 53.59851 | -26.19510 | 39648 ft | 512 kts | 277° |
| 2026-05-09 13:32 | 53.59586 | -26.43568 | 39651 ft | 512 kts | 277° |
| 2026-05-09 13:32 | 53.59105 | -26.79274 | 39653 ft | 509 kts | 277° |
| 2026-05-09 13:33 | 53.58725 | -27.03136 | 39655 ft | 508 kts | 276° |
| 2026-05-09 13:33 | 53.58301 | -27.26798 | 39655 ft | 509 kts | 276° |
| 2026-05-09 13:34 | 53.57825 | -27.50688 | 39655 ft | 509 kts | 276° |
| 2026-05-09 13:34 | 53.57307 | -27.74351 | 39646 ft | 508 kts | 276° |
| 2026-05-09 13:35 | 53.56738 | -27.98095 | 39661 ft | 506 kts | 275° |
| 2026-05-09 13:35 | 53.56129 | -28.21715 | 39662 ft | 507 kts | 275° |
| 2026-05-09 13:36 | 53.55466 | -28.45499 | 39662 ft | 507 kts | 275° |
| 2026-05-09 13:36 | 53.54761 | -28.69129 | 39669 ft | 508 kts | 274° |
| 2026-05-09 13:37 | 53.54005 | -28.92881 | 39669 ft | 508 kts | 274° |
| 2026-05-09 13:37 | 53.53207 | -29.16458 | 39648 ft | 506 kts | 273° |
| 2026-05-09 13:38 | 53.52362 | -29.40064 | 39672 ft | 505 kts | 273° |
| 2026-05-09 13:38 | 53.51469 | -29.63724 | 39666 ft | 506 kts | 273° |
| 2026-05-09 13:39 | 53.50535 | -29.87206 | 39677 ft | 505 kts | 272° |
| 2026-05-09 13:39 | 53.49469 | -30.10756 | 39678 ft | 506 kts | 271° |
| 2026-05-09 13:40 | 53.48040 | -30.34118 | 39664 ft | 503 kts | 270° |
| 2026-05-09 13:40 | 53.46623 | -30.57481 | 39666 ft | 502 kts | 270° |
| 2026-05-09 13:41 | 53.45176 | -30.80764 | 39664 ft | 502 kts | 270° |
| 2026-05-09 13:41 | 53.43679 | -31.04071 | 39664 ft | 501 kts | 269° |
| 2026-05-09 13:42 | 53.42146 | -31.27216 | 39658 ft | 501 kts | 269° |
| 2026-05-09 13:42 | 53.40565 | -31.50396 | 39651 ft | 500 kts | 268° |
| 2026-05-09 13:43 | 53.38943 | -31.73490 | 39649 ft | 498 kts | 268° |
| 2026-05-09 13:43 | 53.37277 | -31.96575 | 39640 ft | 498 kts | 267° |
| 2026-05-09 13:44 | 53.35576 | -32.19512 | 39644 ft | 498 kts | 267° |
| 2026-05-09 13:44 | 53.33819 | -32.42584 | 39642 ft | 498 kts | 267° |
| 2026-05-09 13:45 | 53.32032 | -32.65463 | 39643 ft | 497 kts | 266° |
| 2026-05-09 13:45 | 53.30205 | -32.88246 | 39642 ft | 493 kts | 266° |
| 2026-05-09 13:46 | 53.28344 | -33.10920 | 39629 ft | 493 kts | 266° |
| 2026-05-09 13:46 | 53.26442 | -33.33567 | 39636 ft | 493 kts | 266° |
| 2026-05-09 13:47 | 53.24485 | -33.56306 | 39621 ft | 492 kts | 265° |
| 2026-05-09 13:47 | 53.22495 | -33.78924 | 39625 ft | 493 kts | 265° |
| 2026-05-09 13:48 | 53.20471 | -34.01416 | 39598 ft | 493 kts | 265° |
| 2026-05-09 13:48 | 53.18396 | -34.23976 | 39614 ft | 487 kts | 264° |
| 2026-05-09 13:49 | 53.16315 | -34.46135 | 39603 ft | 485 kts | 264° |
| 2026-05-09 13:49 | 53.14185 | -34.68365 | 39599 ft | 485 kts | 263° |
| 2026-05-09 13:50 | 53.12021 | -34.90485 | 39592 ft | 485 kts | 263° |
| 2026-05-09 13:50 | 53.09805 | -35.12692 | 39584 ft | 485 kts | 263° |
| 2026-05-09 13:51 | 53.07555 | -35.34809 | 39577 ft | 480 kts | 262° |
| 2026-05-09 13:51 | 53.05308 | -35.56472 | 39565 ft | 476 kts | 262° |
| 2026-05-09 13:52 | 53.03013 | -35.78215 | 39549 ft | 476 kts | 262° |
| 2026-05-09 13:52 | 53.00700 | -35.99720 | 39550 ft | 474 kts | 261° |
| 2026-05-09 13:53 | 52.98343 | -36.21254 | 39554 ft | 474 kts | 262° |
| 2026-05-09 13:53 | 52.95948 | -36.42771 | 39534 ft | 473 kts | 261° |
| 2026-05-09 13:54 | 52.93521 | -36.64176 | 39538 ft | 474 kts | 261° |
| 2026-05-09 13:54 | 52.91044 | -36.85670 | 39521 ft | 473 kts | 260° |
| 2026-05-09 13:55 | 52.88549 | -37.06968 | 39520 ft | 472 kts | 260° |
| 2026-05-09 13:55 | 52.86013 | -37.28259 | 39517 ft | 473 kts | 260° |
| 2026-05-09 13:56 | 52.83425 | -37.49640 | 39502 ft | 470 kts | 259° |
| 2026-05-09 13:56 | 52.80834 | -37.70715 | 39492 ft | 470 kts | 258° |
| 2026-05-09 13:57 | 52.78200 | -37.91811 | 39483 ft | 469 kts | 258° |
| 2026-05-09 13:57 | 52.75534 | -38.12845 | 39477 ft | 466 kts | 257° |
| 2026-05-09 13:58 | 52.72851 | -38.33683 | 39459 ft | 466 kts | 257° |
| 2026-05-09 13:58 | 52.70114 | -38.54627 | 39456 ft | 466 kts | 257° |
| 2026-05-09 13:59 | 52.67354 | -38.75446 | 39444 ft | 465 kts | 256° |
| 2026-05-09 13:59 | 52.64545 | -38.96331 | 39438 ft | 466 kts | 256° |
| 2026-05-09 14:00 | 52.62678 | -39.10079 | 39439 ft | 462 kts | 256° |
| 2026-05-09 14:00 | 52.58882 | -39.37558 | 39419 ft | 460 kts | 256° |
| 2026-05-09 14:01 | 52.55998 | -39.58138 | 39412 ft | 461 kts | 255° |
| 2026-05-09 14:01 | 52.53089 | -39.78598 | 39396 ft | 460 kts | 255° |
| 2026-05-09 14:02 | 52.50153 | -39.98965 | 39388 ft | 461 kts | 254° |
| 2026-05-09 14:02 | 52.47088 | -40.19384 | 39380 ft | 459 kts | 253° |
| 2026-05-09 14:03 | 52.44005 | -40.39474 | 39360 ft | 455 kts | 253° |
| 2026-05-09 14:03 | 52.40885 | -40.59634 | 39348 ft | 455 kts | 253° |
| 2026-05-09 14:04 | 52.37757 | -40.79597 | 39329 ft | 453 kts | 253° |
| 2026-05-09 14:04 | 52.34575 | -40.99638 | 39322 ft | 454 kts | 253° |
| 2026-05-09 14:05 | 52.31384 | -41.19530 | 39302 ft | 453 kts | 252° |
| 2026-05-09 14:05 | 52.28146 | -41.39459 | 39291 ft | 453 kts | 252° |
| 2026-05-09 14:06 | 52.24908 | -41.59165 | 39287 ft | 449 kts | 251° |
| 2026-05-09 14:06 | 52.21629 | -41.78877 | 39264 ft | 449 kts | 251° |
| 2026-05-09 14:07 | 52.18338 | -41.98444 | 39256 ft | 449 kts | 251° |
| 2026-05-09 14:07 | 52.15009 | -42.18019 | 39229 ft | 449 kts | 251° |
| 2026-05-09 14:08 | 52.11632 | -42.37653 | 39222 ft | 449 kts | 251° |
| 2026-05-09 14:08 | 52.08224 | -42.57250 | 39219 ft | 449 kts | 250° |
| 2026-05-09 14:09 | 52.04787 | -42.76791 | 39197 ft | 452 kts | 250° |
| 2026-05-09 14:09 | 52.01292 | -42.96449 | 39181 ft | 452 kts | 250° |
| 2026-05-09 14:10 | 51.96011 | -43.25759 | 39165 ft | 452 kts | 249° |
| 2026-05-09 14:11 | 51.92443 | -43.45293 | 39151 ft | 452 kts | 249° |
| 2026-05-09 14:11 | 51.88845 | -43.64783 | 39129 ft | 451 kts | 249° |
| 2026-05-09 14:12 | 51.85216 | -43.84241 | 39132 ft | 451 kts | 248° |
| 2026-05-09 14:12 | 51.81601 | -44.03431 | 39122 ft | 448 kts | 248° |
| 2026-05-09 14:13 | 51.77944 | -44.22632 | 39097 ft | 446 kts | 247° |
| 2026-05-09 14:15 | 51.63700 | -44.95641 | 39058 ft | 444 kts | 246° |
| 2026-05-09 14:15 | 51.59939 | -45.14479 | 39039 ft | 443 kts | 245° |
| 2026-05-09 14:16 | 51.56141 | -45.33305 | 39025 ft | 444 kts | 245° |
| 2026-05-09 14:16 | 51.52285 | -45.52240 | 39018 ft | 444 kts | 245° |
| 2026-05-09 14:17 | 51.48429 | -45.70991 | 39002 ft | 444 kts | 245° |
| 2026-05-09 14:17 | 51.44504 | -45.89907 | 38979 ft | 444 kts | 245° |
| 2026-05-09 14:18 | 51.40588 | -46.08598 | 38975 ft | 445 kts | 244° |
| 2026-05-09 14:18 | 51.36619 | -46.27371 | 38963 ft | 444 kts | 244° |
| 2026-05-09 14:19 | 51.32652 | -46.45958 | 38967 ft | 443 kts | 244° |
| 2026-05-09 14:19 | 51.28668 | -46.64469 | 38930 ft | 437 kts | 244° |
| 2026-05-09 14:20 | 51.24702 | -46.82702 | 38920 ft | 437 kts | 243° |
| 2026-05-09 14:20 | 51.20704 | -47.00966 | 38904 ft | 431 kts | 243° |
| 2026-05-09 14:21 | 51.14741 | -47.27846 | 38915 ft | 428 kts | 242° |
| 2026-05-09 14:21 | 51.10750 | -47.45661 | 38881 ft | 427 kts | 242° |
| 2026-05-09 14:22 | 51.06727 | -47.63468 | 38880 ft | 425 kts | 242° |
| 2026-05-09 14:22 | 51.02719 | -47.81055 | 38864 ft | 425 kts | 241° |
| 2026-05-09 14:23 | 50.98658 | -47.98733 | 38859 ft | 425 kts | 241° |
| 2026-05-09 14:23 | 50.94605 | -48.16227 | 38851 ft | 425 kts | 241° |
| 2026-05-09 14:24 | 50.90494 | -48.33830 | 38846 ft | 424 kts | 240° |
| 2026-05-09 14:24 | 50.86385 | -48.51281 | 38843 ft | 424 kts | 240° |
| 2026-05-09 14:25 | 50.82230 | -48.68786 | 38832 ft | 424 kts | 240° |
| 2026-05-09 14:25 | 50.78046 | -48.86265 | 38826 ft | 425 kts | 240° |
| 2026-05-09 14:26 | 50.73856 | -49.03633 | 38826 ft | 424 kts | 240° |
| 2026-05-09 14:26 | 50.69619 | -49.21062 | 38823 ft | 424 kts | 239° |
| 2026-05-09 14:27 | 50.65356 | -49.38457 | 38822 ft | 424 kts | 239° |
| 2026-05-09 14:27 | 50.61076 | -49.55783 | 38818 ft | 426 kts | 239° |
| 2026-05-09 14:28 | 50.56776 | -49.73062 | 38821 ft | 426 kts | 238° |
| 2026-05-09 14:28 | 50.52417 | -49.90438 | 38812 ft | 426 kts | 238° |
| 2026-05-09 14:29 | 50.48100 | -50.07744 | 38815 ft | 427 kts | 239° |
| 2026-05-09 14:29 | 50.43911 | -50.25325 | 38818 ft | 429 kts | 239° |
| 2026-05-09 14:30 | 50.39685 | -50.42783 | 38818 ft | 429 kts | 239° |
| 2026-05-09 14:30 | 50.35410 | -50.60240 | 38840 ft | 434 kts | 239° |
| 2026-05-09 14:31 | 50.31013 | -50.78074 | 38822 ft | 438 kts | 239° |
| 2026-05-09 14:31 | 50.26614 | -50.95792 | 38821 ft | 438 kts | 239° |
| 2026-05-09 14:32 | 50.22189 | -51.13454 | 38825 ft | 440 kts | 239° |
| 2026-05-09 14:32 | 50.17693 | -51.31264 | 38832 ft | 440 kts | 239° |
| 2026-05-09 14:33 | 50.13173 | -51.49027 | 38866 ft | 440 kts | 240° |
| 2026-05-09 14:33 | 50.08677 | -51.66562 | 38845 ft | 437 kts | 240° |
| 2026-05-09 14:34 | 50.04126 | -51.84165 | 38855 ft | 436 kts | 239° |
| 2026-05-09 14:34 | 49.99849 | -52.01774 | 38865 ft | 446 kts | 248° |
| 2026-05-09 14:35 | 49.97196 | -52.20780 | 38864 ft | 450 kts | 250° |
| 2026-05-09 14:35 | 49.94663 | -52.39765 | 38891 ft | 450 kts | 249° |
| 2026-05-09 14:36 | 49.92049 | -52.58802 | 38886 ft | 454 kts | 250° |
| 2026-05-09 14:36 | 49.89384 | -52.78012 | 38887 ft | 455 kts | 250° |
| 2026-05-09 14:37 | 49.86686 | -52.97196 | 38894 ft | 454 kts | 249° |
| 2026-05-09 14:37 | 49.83969 | -53.16256 | 38900 ft | 457 kts | 250° |
| 2026-05-09 14:38 | 49.81186 | -53.35536 | 38913 ft | 458 kts | 249° |
| 2026-05-09 14:38 | 49.78388 | -53.54700 | 38948 ft | 458 kts | 250° |
| 2026-05-09 14:39 | 49.75532 | -53.73989 | 38927 ft | 460 kts | 249° |
| 2026-05-09 14:39 | 49.72637 | -53.93316 | 38933 ft | 462 kts | 249° |
| 2026-05-09 14:40 | 49.69714 | -54.12599 | 38945 ft | 462 kts | 250° |
| 2026-05-09 14:40 | 49.66757 | -54.31871 | 38938 ft | 462 kts | 249° |
| 2026-05-09 14:41 | 49.63755 | -54.51201 | 38936 ft | 462 kts | 249° |
| 2026-05-09 14:41 | 49.60722 | -54.70493 | 38928 ft | 463 kts | 250° |
| 2026-05-09 14:42 | 49.57668 | -54.89703 | 38937 ft | 461 kts | 250° |
| 2026-05-09 14:42 | 49.54581 | -55.08877 | 38939 ft | 462 kts | 250° |
| 2026-05-09 14:43 | 49.51449 | -55.28114 | 38946 ft | 463 kts | 250° |
| 2026-05-09 14:43 | 49.48279 | -55.47370 | 38936 ft | 464 kts | 250° |
| 2026-05-09 14:44 | 49.45081 | -55.66589 | 38939 ft | 463 kts | 250° |
| 2026-05-09 14:44 | 49.41863 | -55.85697 | 38936 ft | 463 kts | 250° |
| 2026-05-09 14:45 | 49.38596 | -56.04880 | 38931 ft | 463 kts | 250° |
| 2026-05-09 14:45 | 49.35323 | -56.23900 | 38936 ft | 463 kts | 250° |
| 2026-05-09 14:46 | 49.31995 | -56.43029 | 38927 ft | 462 kts | 250° |
| 2026-05-09 14:46 | 49.28656 | -56.62010 | 38929 ft | 462 kts | 250° |
| 2026-05-09 14:47 | 49.25300 | -56.80888 | 38934 ft | 462 kts | 250° |
| 2026-05-09 14:47 | 49.21889 | -56.99883 | 38932 ft | 461 kts | 250° |
| 2026-05-09 14:48 | 49.18457 | -57.18787 | 38942 ft | 461 kts | 250° |
| 2026-05-09 14:48 | 49.15007 | -57.37590 | 38946 ft | 461 kts | 250° |
| 2026-05-09 14:49 | 49.11499 | -57.56529 | 38945 ft | 462 kts | 250° |
| 2026-05-09 14:49 | 49.07993 | -57.75261 | 38951 ft | 461 kts | 250° |
| 2026-05-09 14:50 | 49.04431 | -57.94096 | 38963 ft | 461 kts | 250° |
| 2026-05-09 14:50 | 49.02634 | -58.03525 | 39107 ft | 464 kts | 250° |
| 2026-05-09 14:50 | 49.00815 | -58.13022 | 39418 ft | 465 kts | 250° |
| 2026-05-09 14:51 | 48.99018 | -58.22370 | 39757 ft | 465 kts | 250° |
| 2026-05-09 14:51 | 48.97183 | -58.31862 | 39972 ft | 466 kts | 250° |
| 2026-05-09 14:51 | 48.93519 | -58.50673 | 39988 ft | 466 kts | 250° |
| 2026-05-09 14:52 | 48.89803 | -58.69559 | 40020 ft | 466 kts | 250° |
| 2026-05-09 14:52 | 48.86050 | -58.88450 | 39999 ft | 467 kts | 250° |
| 2026-05-09 14:53 | 48.82265 | -59.07325 | 39998 ft | 467 kts | 250° |
| 2026-05-09 14:53 | 48.78438 | -59.26220 | 39998 ft | 467 kts | 250° |
| 2026-05-09 14:54 | 48.74617 | -59.44909 | 40001 ft | 466 kts | 250° |
| 2026-05-09 14:54 | 48.70744 | -59.63672 | 40001 ft | 466 kts | 250° |
| 2026-05-09 14:55 | 48.66837 | -59.82427 | 39999 ft | 466 kts | 250° |
| 2026-05-09 14:55 | 48.62922 | -60.01045 | 40001 ft | 466 kts | 250° |
| 2026-05-09 14:56 | 48.58954 | -60.19742 | 40002 ft | 466 kts | 250° |
| 2026-05-09 14:56 | 48.54992 | -60.38244 | 39999 ft | 464 kts | 250° |
| 2026-05-09 14:57 | 48.50977 | -60.56823 | 40001 ft | 464 kts | 250° |
| 2026-05-09 14:57 | 48.46961 | -60.75238 | 40008 ft | 463 kts | 250° |
| 2026-05-09 14:58 | 48.42901 | -60.93692 | 40010 ft | 463 kts | 250° |
| 2026-05-09 14:58 | 48.38842 | -61.11980 | 40008 ft | 463 kts | 249° |
| 2026-05-09 14:59 | 48.34727 | -61.30360 | 40015 ft | 463 kts | 249° |
| 2026-05-09 14:59 | 48.31287 | -61.45602 | 40012 ft | 462 kts | 249° |
| 2026-05-09 15:00 | 48.26454 | -61.66842 | 40017 ft | 462 kts | 249° |
| 2026-05-09 15:00 | 48.22945 | -61.82117 | 40020 ft | 461 kts | 249° |
| 2026-05-09 15:01 | 48.16671 | -62.09178 | 40021 ft | 461 kts | 249° |
| 2026-05-09 15:02 | 48.12420 | -62.27319 | 40021 ft | 461 kts | 249° |
| 2026-05-09 15:02 | 48.08136 | -62.45454 | 40021 ft | 460 kts | 249° |
| 2026-05-09 15:03 | 48.03861 | -62.63399 | 40031 ft | 460 kts | 249° |
| 2026-05-09 15:03 | 47.99536 | -62.81401 | 40020 ft | 459 kts | 249° |
| 2026-05-09 15:04 | 47.95216 | -62.99243 | 40020 ft | 459 kts | 249° |
| 2026-05-09 15:06 | 47.77598 | -63.70557 | 40011 ft | 458 kts | 249° |
| 2026-05-09 15:06 | 47.73147 | -63.88223 | 40026 ft | 457 kts | 249° |
| 2026-05-09 15:07 | 47.68659 | -64.05896 | 40015 ft | 458 kts | 248° |
| 2026-05-09 15:07 | 47.64151 | -64.23509 | 40012 ft | 458 kts | 248° |
| 2026-05-09 15:08 | 47.59597 | -64.41170 | 40012 ft | 457 kts | 248° |
| 2026-05-09 15:08 | 47.52742 | -64.67495 | 40012 ft | 458 kts | 248° |
| 2026-05-09 15:10 | 47.34169 | -65.37364 | 40001 ft | 456 kts | 248° |
| 2026-05-09 15:11 | 47.29467 | -65.54727 | 39993 ft | 456 kts | 248° |
| 2026-05-09 15:11 | 47.24768 | -65.71955 | 39999 ft | 453 kts | 248° |
| 2026-05-09 15:12 | 47.20059 | -65.89092 | 39999 ft | 453 kts | 248° |
| 2026-05-09 15:12 | 47.15297 | -66.06299 | 39998 ft | 452 kts | 248° |
| 2026-05-09 15:13 | 47.10537 | -66.23374 | 39994 ft | 451 kts | 248° |
| 2026-05-09 15:13 | 47.05751 | -66.40421 | 39994 ft | 452 kts | 248° |
| 2026-05-09 15:14 | 47.02454 | -66.52098 | 39996 ft | 451 kts | 248° |
| 2026-05-09 15:14 | 47.00044 | -66.60596 | 39996 ft | 450 kts | 248° |
| 2026-05-09 15:15 | 46.97646 | -66.69021 | 39999 ft | 450 kts | 247° |
| 2026-05-09 15:15 | 46.95234 | -66.77470 | 39999 ft | 450 kts | 247° |
| 2026-05-09 15:16 | 46.92805 | -66.85944 | 39999 ft | 450 kts | 247° |
| 2026-05-09 15:16 | 46.90392 | -66.94338 | 40004 ft | 450 kts | 247° |
| 2026-05-09 15:17 | 46.87577 | -67.02503 | 40001 ft | 451 kts | 237° |
| 2026-05-09 15:17 | 46.83358 | -67.09262 | 40006 ft | 454 kts | 221° |
| 2026-05-09 15:18 | 46.78348 | -67.14914 | 40004 ft | 455 kts | 219° |
| 2026-05-09 15:18 | 46.73286 | -67.20513 | 40004 ft | 455 kts | 220° |
| 2026-05-09 15:19 | 46.68243 | -67.26095 | 40006 ft | 455 kts | 220° |
| 2026-05-09 15:19 | 46.63208 | -67.31662 | 40007 ft | 455 kts | 220° |
| 2026-05-09 15:20 | 46.55679 | -67.39963 | 40006 ft | 455 kts | 220° |
| 2026-05-09 15:21 | 46.50619 | -67.45527 | 40010 ft | 455 kts | 220° |
| 2026-05-09 15:21 | 46.45560 | -67.51074 | 40013 ft | 455 kts | 219° |
| 2026-05-09 15:22 | 46.40532 | -67.56576 | 39999 ft | 455 kts | 220° |
| 2026-05-09 15:22 | 46.35475 | -67.62096 | 40011 ft | 454 kts | 220° |
| 2026-05-09 15:23 | 46.30429 | -67.67592 | 40008 ft | 453 kts | 220° |
| 2026-05-09 15:23 | 46.25408 | -67.73047 | 40010 ft | 453 kts | 220° |
| 2026-05-09 15:24 | 46.20354 | -67.78525 | 40001 ft | 453 kts | 220° |
| 2026-05-09 15:24 | 46.15317 | -67.83972 | 40001 ft | 452 kts | 220° |
| 2026-05-09 15:25 | 46.10306 | -67.89378 | 40002 ft | 452 kts | 220° |
| 2026-05-09 15:25 | 46.05255 | -67.94814 | 39999 ft | 452 kts | 220° |
| 2026-05-09 15:26 | 45.97716 | -68.02905 | 40014 ft | 451 kts | 220° |
| 2026-05-09 15:26 | 45.92667 | -68.08308 | 40023 ft | 451 kts | 220° |
| 2026-05-09 15:27 | 45.87617 | -68.13699 | 40013 ft | 451 kts | 220° |
| 2026-05-09 15:27 | 45.82607 | -68.19035 | 40032 ft | 450 kts | 220° |
| 2026-05-09 15:28 | 45.77564 | -68.24394 | 40027 ft | 450 kts | 220° |
| 2026-05-09 15:28 | 45.72524 | -68.29738 | 40039 ft | 450 kts | 220° |
| 2026-05-09 15:29 | 45.67518 | -68.35034 | 40039 ft | 450 kts | 220° |
| 2026-05-09 15:29 | 45.62478 | -68.40353 | 40045 ft | 449 kts | 220° |
| 2026-05-09 15:30 | 45.57438 | -68.45660 | 40044 ft | 449 kts | 220° |
| 2026-05-09 15:30 | 45.52427 | -68.50925 | 40024 ft | 449 kts | 220° |
| 2026-05-09 15:31 | 45.47380 | -68.56215 | 40041 ft | 449 kts | 220° |
| 2026-05-09 15:31 | 45.42369 | -68.61455 | 40043 ft | 448 kts | 220° |
| 2026-05-09 15:32 | 45.37330 | -68.66714 | 40044 ft | 448 kts | 220° |
| 2026-05-09 15:32 | 45.29699 | -68.74654 | 40045 ft | 447 kts | 220° |
| 2026-05-09 15:33 | 45.19698 | -68.85019 | 40036 ft | 447 kts | 220° |
| 2026-05-09 15:33 | 45.09643 | -68.95394 | 40034 ft | 445 kts | 220° |
| 2026-05-09 15:34 | 44.99607 | -69.05704 | 40037 ft | 445 kts | 220° |
| 2026-05-09 15:34 | 44.89650 | -69.15887 | 40035 ft | 444 kts | 220° |
| 2026-05-09 15:35 | 44.79648 | -69.26071 | 40032 ft | 443 kts | 220° |
| 2026-05-09 15:35 | 44.69621 | -69.36237 | 40030 ft | 443 kts | 220° |
| 2026-05-09 15:36 | 44.59664 | -69.46287 | 40012 ft | 442 kts | 220° |
| 2026-05-09 15:36 | 44.49656 | -69.56346 | 39995 ft | 442 kts | 220° |
| 2026-05-09 15:37 | 44.37752 | -69.68254 | 40036 ft | 439 kts | 220° |
| 2026-05-09 15:37 | 44.17937 | -69.87942 | 40053 ft | 437 kts | 220° |
| 2026-05-09 15:38 | 43.98132 | -70.07453 | 40063 ft | 436 kts | 220° |
| 2026-05-09 15:38 | 43.78414 | -70.26721 | 40046 ft | 435 kts | 220° |
| 2026-05-09 15:39 | 43.58507 | -70.46012 | 40046 ft | 435 kts | 220° |
| 2026-05-09 15:39 | 43.37990 | -70.63651 | 40051 ft | 446 kts | 206° |
| 2026-05-09 15:40 | 43.14554 | -70.75118 | 40046 ft | 445 kts | 206° |
| 2026-05-09 15:40 | 42.91277 | -70.86455 | 40044 ft | 442 kts | 206° |
| 2026-05-09 15:41 | 42.68026 | -70.97692 | 40054 ft | 440 kts | 206° |
| 2026-05-09 15:41 | 42.45056 | -71.08702 | 40036 ft | 438 kts | 206° |
| 2026-05-09 15:42 | 42.21971 | -71.19682 | 40012 ft | 439 kts | 207° |
| 2026-05-09 15:42 | 42.14389 | -71.23270 | 40035 ft | 439 kts | 207° |
| 2026-05-09 15:43 | 42.08616 | -71.25995 | 40027 ft | 439 kts | 207° |
| 2026-05-09 15:43 | 42.02846 | -71.28714 | 40030 ft | 439 kts | 207° |
| 2026-05-09 15:44 | 41.97106 | -71.31414 | 40024 ft | 439 kts | 207° |
| 2026-05-09 15:44 | 41.91325 | -71.34127 | 40010 ft | 439 kts | 207° |
| 2026-05-09 15:45 | 41.85542 | -71.36837 | 40011 ft | 439 kts | 207° |
| 2026-05-09 15:45 | 41.79769 | -71.39537 | 40026 ft | 439 kts | 207° |
| 2026-05-09 15:46 | 41.76886 | -71.40883 | 39920 ft | 440 kts | 207° |
| 2026-05-09 15:46 | 41.74068 | -71.42329 | 39631 ft | 436 kts | 211° |
| 2026-05-09 15:46 | 41.71439 | -71.44248 | 39090 ft | 425 kts | 220° |
| 2026-05-09 15:46 | 41.69097 | -71.46622 | 38442 ft | 420 kts | 225° |
| 2026-05-09 15:47 | 41.66857 | -71.49128 | 37781 ft | 418 kts | 226° |
| 2026-05-09 15:47 | 41.64640 | -71.51627 | 37123 ft | 416 kts | 226° |
| 2026-05-09 15:47 | 41.62421 | -71.54121 | 36509 ft | 414 kts | 226° |
| 2026-05-09 15:47 | 41.60237 | -71.56566 | 35892 ft | 413 kts | 226° |
| 2026-05-09 15:48 | 41.58030 | -71.59031 | 35234 ft | 413 kts | 225° |
| 2026-05-09 15:48 | 41.55826 | -71.61487 | 34656 ft | 412 kts | 225° |
| 2026-05-09 15:48 | 41.53631 | -71.63927 | 34181 ft | 408 kts | 225° |
| 2026-05-09 15:48 | 41.51452 | -71.66347 | 33632 ft | 404 kts | 225° |
| 2026-05-09 15:49 | 41.50021 | -71.67935 | 33312 ft | 401 kts | 225° |
| 2026-05-09 15:49 | 41.47192 | -71.71070 | 32675 ft | 395 kts | 225° |
| 2026-05-09 15:49 | 41.45091 | -71.73397 | 32204 ft | 390 kts | 225° |
| 2026-05-09 15:49 | 41.43713 | -71.74922 | 31880 ft | 387 kts | 225° |
| 2026-05-09 15:50 | 41.41639 | -71.77219 | 31423 ft | 390 kts | 225° |
| 2026-05-09 15:50 | 41.38818 | -71.80348 | 30801 ft | 402 kts | 225° |
| 2026-05-09 15:50 | 41.37365 | -71.81953 | 30450 ft | 402 kts | 225° |
| 2026-05-09 15:50 | 41.35212 | -71.84325 | 29930 ft | 399 kts | 225° |
| 2026-05-09 15:51 | 41.33104 | -71.86645 | 29399 ft | 395 kts | 225° |
| 2026-05-09 15:51 | 41.30994 | -71.88967 | 28919 ft | 392 kts | 225° |
| 2026-05-09 15:51 | 41.28903 | -71.91267 | 28421 ft | 389 kts | 225° |
| 2026-05-09 15:51 | 41.26826 | -71.93553 | 27887 ft | 385 kts | 225° |
| 2026-05-09 15:52 | 41.22754 | -71.98023 | 26881 ft | 378 kts | 225° |
| 2026-05-09 15:52 | 41.20726 | -72.00246 | 26360 ft | 374 kts | 225° |
| 2026-05-09 15:52 | 41.18725 | -72.02438 | 25862 ft | 371 kts | 225° |
| 2026-05-09 15:53 | 41.16734 | -72.04620 | 25371 ft | 370 kts | 224° |
| 2026-05-09 15:53 | 41.14743 | -72.06799 | 24865 ft | 369 kts | 224° |
| 2026-05-09 15:53 | 41.12766 | -72.08960 | 24354 ft | 367 kts | 224° |
| 2026-05-09 15:53 | 41.10938 | -72.11211 | 23857 ft | 360 kts | 232° |
| 2026-05-09 15:54 | 41.09561 | -72.13926 | 23304 ft | 352 kts | 246° |
| 2026-05-09 15:54 | 41.08676 | -72.16944 | 22773 ft | 348 kts | 252° |
| 2026-05-09 15:54 | 41.07925 | -72.19996 | 22273 ft | 346 kts | 252° |
| 2026-05-09 15:54 | 41.07199 | -72.22988 | 21776 ft | 343 kts | 252° |
| 2026-05-09 15:55 | 41.06466 | -72.25988 | 21294 ft | 341 kts | 252° |
| 2026-05-09 15:55 | 41.05732 | -72.28975 | 20788 ft | 338 kts | 252° |
| 2026-05-09 15:55 | 41.05002 | -72.31927 | 20299 ft | 336 kts | 252° |
| 2026-05-09 15:55 | 41.04279 | -72.34839 | 19814 ft | 334 kts | 252° |
| 2026-05-09 15:56 | 41.03550 | -72.37765 | 19300 ft | 332 kts | 252° |
| 2026-05-09 15:56 | 41.02828 | -72.40660 | 18826 ft | 330 kts | 252° |
| 2026-05-09 15:56 | 41.02117 | -72.43510 | 18349 ft | 328 kts | 252° |
| 2026-05-09 15:56 | 41.01402 | -72.46373 | 17816 ft | 325 kts | 252° |
| 2026-05-09 15:57 | 41.00690 | -72.49223 | 17340 ft | 323 kts | 252° |
| 2026-05-09 15:57 | 40.99994 | -72.52000 | 16874 ft | 318 kts | 251° |
| 2026-05-09 15:57 | 40.99297 | -72.54780 | 16388 ft | 314 kts | 251° |
| 2026-05-09 15:57 | 40.98622 | -72.57471 | 15936 ft | 309 kts | 251° |
| 2026-05-09 15:58 | 40.97944 | -72.60167 | 15468 ft | 307 kts | 250° |
| 2026-05-09 15:58 | 40.97272 | -72.62841 | 15006 ft | 304 kts | 250° |
| 2026-05-09 15:58 | 40.96602 | -72.65496 | 14553 ft | 302 kts | 249° |
| 2026-05-09 15:58 | 40.95945 | -72.68102 | 14080 ft | 301 kts | 249° |
| 2026-05-09 15:59 | 40.95282 | -72.70727 | 13611 ft | 299 kts | 249° |
| 2026-05-09 15:59 | 40.94622 | -72.73335 | 13126 ft | 297 kts | 249° |
| 2026-05-09 15:59 | 40.93969 | -72.75915 | 12668 ft | 294 kts | 248° |
| 2026-05-09 15:59 | 40.93246 | -72.78399 | 12301 ft | 293 kts | 241° |
| 2026-05-09 16:00 | 40.92067 | -72.80596 | 12082 ft | 292 kts | 224° |
| 2026-05-09 16:00 | 40.91050 | -72.81754 | 12033 ft | 292 kts | 218° |
| 2026-05-09 16:00 | 40.88877 | -72.83862 | 11690 ft | 287 kts | 216° |
| 2026-05-09 16:00 | 40.87254 | -72.85400 | 11110 ft | 287 kts | 216° |
| 2026-05-09 16:01 | 40.85643 | -72.86931 | 10725 ft | 280 kts | 216° |
| 2026-05-09 16:01 | 40.84088 | -72.88414 | 10518 ft | 268 kts | 216° |
| 2026-05-09 16:01 | 40.82627 | -72.89810 | 10332 ft | 256 kts | 216° |
| 2026-05-09 16:01 | 40.81201 | -72.91172 | 10056 ft | 249 kts | 216° |
| 2026-05-09 16:02 | 40.79807 | -72.92505 | 9663 ft | 246 kts | 216° |
| 2026-05-09 16:02 | 40.77048 | -72.95142 | 8794 ft | 244 kts | 216° |
| 2026-05-09 16:02 | 40.75675 | -72.96453 | 8472 ft | 243 kts | 215° |
| 2026-05-09 16:03 | 40.74320 | -72.97748 | 8216 ft | 242 kts | 215° |
| 2026-05-09 16:03 | 40.72955 | -72.99050 | 7958 ft | 241 kts | 216° |
| 2026-05-09 16:03 | 40.71594 | -73.00349 | 7684 ft | 242 kts | 216° |
| 2026-05-09 16:03 | 40.70244 | -73.01681 | 7432 ft | 243 kts | 220° |
| 2026-05-09 16:04 | 40.69138 | -73.03362 | 7177 ft | 245 kts | 237° |
| 2026-05-09 16:04 | 40.68678 | -73.05553 | 6936 ft | 254 kts | 264° |
| 2026-05-09 16:04 | 40.69029 | -73.07843 | 6689 ft | 263 kts | 284° |
| 2026-05-09 16:04 | 40.69716 | -73.10089 | 6428 ft | 264 kts | 287° |
| 2026-05-09 16:05 | 40.70452 | -73.12322 | 6181 ft | 264 kts | 287° |
| 2026-05-09 16:05 | 40.71178 | -73.14515 | 5931 ft | 262 kts | 287° |
| 2026-05-09 16:05 | 40.71906 | -73.16720 | 5666 ft | 261 kts | 287° |
| 2026-05-09 16:05 | 40.72622 | -73.18888 | 5408 ft | 259 kts | 287° |
| 2026-05-09 16:06 | 40.73347 | -73.21079 | 5164 ft | 258 kts | 287° |
| 2026-05-09 16:06 | 40.74063 | -73.23233 | 4905 ft | 252 kts | 287° |
| 2026-05-09 16:06 | 40.74756 | -73.25295 | 4643 ft | 245 kts | 287° |
| 2026-05-09 16:06 | 40.75441 | -73.27313 | 4378 ft | 238 kts | 287° |
| 2026-05-09 16:07 | 40.76118 | -73.29283 | 4124 ft | 232 kts | 287° |
| 2026-05-09 16:07 | 40.76773 | -73.31172 | 4018 ft | 221 kts | 287° |
| 2026-05-09 16:07 | 40.77400 | -73.32966 | 3989 ft | 208 kts | 287° |
| 2026-05-09 16:07 | 40.77998 | -73.34656 | 3994 ft | 205 kts | 287° |
| 2026-05-09 16:08 | 40.78602 | -73.36360 | 3922 ft | 205 kts | 287° |
| 2026-05-09 16:08 | 40.79205 | -73.38060 | 3672 ft | 205 kts | 287° |
| 2026-05-09 16:08 | 40.79807 | -73.39782 | 3434 ft | 206 kts | 287° |
| 2026-05-09 16:08 | 40.80404 | -73.41502 | 3177 ft | 205 kts | 287° |
| 2026-05-09 16:09 | 40.80994 | -73.43218 | 2921 ft | 204 kts | 287° |
| 2026-05-09 16:09 | 40.81571 | -73.44909 | 2672 ft | 202 kts | 287° |
| 2026-05-09 16:09 | 40.82143 | -73.46604 | 2424 ft | 199 kts | 287° |
| 2026-05-09 16:09 | 40.82693 | -73.48249 | 2155 ft | 196 kts | 287° |
| 2026-05-09 16:10 | 40.83230 | -73.49854 | 2014 ft | 186 kts | 287° |
| 2026-05-09 16:10 | 40.83759 | -73.51420 | 1991 ft | 185 kts | 287° |
| 2026-05-09 16:10 | 40.84278 | -73.52957 | 1981 ft | 185 kts | 287° |
| 2026-05-09 16:10 | 40.84688 | -73.54547 | 1971 ft | 180 kts | 270° |
| 2026-05-09 16:11 | 40.84416 | -73.56103 | 1989 ft | 172 kts | 242° |
| 2026-05-09 16:11 | 40.83831 | -73.57460 | 1986 ft | 173 kts | 238° |
| 2026-05-09 16:11 | 40.83192 | -73.58812 | 1981 ft | 172 kts | 237° |
| 2026-05-09 16:11 | 40.82553 | -73.60145 | 1981 ft | 173 kts | 237° |
| 2026-05-09 16:12 | 40.81876 | -73.61464 | 1980 ft | 172 kts | 231° |
| 2026-05-09 16:12 | 40.80985 | -73.62496 | 1966 ft | 173 kts | 216° |
| 2026-05-09 16:12 | 40.79964 | -73.63343 | 1983 ft | 175 kts | 212° |
| 2026-05-09 16:12 | 40.78919 | -73.64170 | 1985 ft | 173 kts | 213° |
| 2026-05-09 16:13 | 40.77891 | -73.64981 | 1987 ft | 172 kts | 213° |
| 2026-05-09 16:13 | 40.76860 | -73.65796 | 2001 ft | 175 kts | 213° |
| 2026-05-09 16:13 | 40.75805 | -73.66631 | 2000 ft | 177 kts | 213° |
| 2026-05-09 16:13 | 40.74789 | -73.67430 | 1982 ft | 165 kts | 213° |
| 2026-05-09 16:14 | 40.73816 | -73.68200 | 1988 ft | 157 kts | 213° |
| 2026-05-09 16:14 | 40.72919 | -73.68902 | 1986 ft | 147 kts | 213° |
| 2026-05-09 16:14 | 40.72038 | -73.69590 | 1773 ft | 144 kts | 213° |
| 2026-05-09 16:14 | 40.71191 | -73.70256 | 1593 ft | 141 kts | 213° |
| 2026-05-09 16:15 | 40.70335 | -73.70930 | 1377 ft | 141 kts | 213° |
| 2026-05-09 16:15 | 40.69507 | -73.71576 | 1183 ft | 137 kts | 211° |
| 2026-05-09 16:15 | 40.68694 | -73.72204 | 1006 ft | 135 kts | 211° |
| 2026-05-09 16:15 | 40.67884 | -73.72857 | 822 ft | 139 kts | 212° |
| 2026-05-09 16:16 | 40.67060 | -73.73513 | 635 ft | 138 kts | 210° |
| 2026-05-09 16:16 | 40.66251 | -73.74138 | 427 ft | 132 kts | 208° |
| 2026-05-09 16:16 | 40.65469 | -73.74755 | 268 ft | 129 kts | 210° |
| 2026-05-09 16:16 | 40.64703 | -73.75345 | 112 ft | 128 kts | 209° |
| 2026-05-09 16:17 | 40.63939 | -73.75943 | 29 ft | 120 kts | 210° |
| 2026-05-09 16:17 | 40.63408 | -73.76359 | 30 ft | 59 kts | 211° |
| 2026-05-09 16:17 | 40.63133 | -73.76576 | 30 ft | 42 kts | 212° |
| 2026-05-09 16:17 | 40.62965 | -73.76800 | 27 ft | 26 kts | 239° |
| 2026-05-09 16:18 | 40.62924 | -73.76932 | 28 ft | 12 kts | 269° |
| 2026-05-09 16:18 | 40.62954 | -73.77030 | 28 ft | 13 kts | 301° |
| 2026-05-09 16:18 | 40.63004 | -73.77138 | 31 ft | 14 kts | 302° |
| 2026-05-09 16:18 | 40.63055 | -73.77250 | 34 ft | 15 kts | 301° |
| 2026-05-09 16:19 | 40.63108 | -73.77366 | 34 ft | 13 kts | 301° |
| 2026-05-09 16:19 | 40.63154 | -73.77468 | 35 ft | 12 kts | 301° |
| 2026-05-09 16:19 | 40.63176 | -73.77516 | 36 ft | 3 kts | 301° |
| 2026-05-09 16:19 | 40.63186 | -73.77537 | 36 ft | 4 kts | 300° |
| 2026-05-09 16:20 | 40.63209 | -73.77590 | 35 ft | 10 kts | 300° |
| 2026-05-09 16:20 | 40.63256 | -73.77695 | 33 ft | 16 kts | 301° |
| 2026-05-09 16:20 | 40.63318 | -73.77829 | 33 ft | 19 kts | 299° |
| 2026-05-09 16:20 | 40.63391 | -73.77995 | 30 ft | 24 kts | 300° |
| 2026-05-09 16:21 | 40.63475 | -73.78186 | 31 ft | 24 kts | 302° |
| 2026-05-09 16:21 | 40.63563 | -73.78378 | 34 ft | 25 kts | 298° |
| 2026-05-09 16:21 | 40.63653 | -73.78579 | 35 ft | 27 kts | 301° |
| 2026-05-09 16:21 | 40.63752 | -73.78797 | 35 ft | 28 kts | 301° |
| 2026-05-09 16:22 | 40.63850 | -73.79014 | 30 ft | 28 kts | 300° |
| 2026-05-09 16:22 | 40.63949 | -73.79232 | 26 ft | 24 kts | 301° |
| 2026-05-09 16:22 | 40.64024 | -73.79395 | 29 ft | 19 kts | 301° |
| 2026-05-09 16:22 | 40.64084 | -73.79496 | 29 ft | 12 kts | 330° |
| 2026-05-09 16:23 | 40.64163 | -73.79508 | 31 ft | 10 kts | 0° |
| 2026-05-09 16:23 | 40.64211 | -73.79472 | 31 ft | 5 kts | 63° |
| 2026-05-09 16:23 | 40.64209 | -73.79418 | 31 ft | 6 kts | 115° |
| 2026-05-09 16:23 | 40.64187 | -73.79367 | 31 ft | 5 kts | 111° |
| 2026-05-09 16:24 | 40.64180 | -73.79337 | 31 ft | 3 kts | 108° |
| 2026-05-09 16:24 | 40.64177 | -73.79325 | 31 ft | 1 kts | 108° |
| 2026-05-09 16:24 | 40.64175 | -73.79317 | 31 ft | 0 kts | 108° |